Bassett, Iowa
Current Conditions -  °F | °C
As of 1:55 AM on Thursday 23 Oct 2014 (Local Time) from KCCY Reporting Station
Overcast Overcast  
Wind Chill: 50°   Ceiling: 5000
Heat Index: 50°   Visibility: 7mi
Dew Point: 43°   Wind: 10mph
Humidity: 76%   Direction: 160°SSE
Pressure: 30.1"   Gusts: NA
Location:  43.0386°N, 92.4951°W
Report Text: KCCY 230655Z AUTO 16009KT 7SM FEW006 FEW029 OVC050 10/06 A3010 RMK AO2
Loading
Personal Weather Stations






























Interactive Weather Map
Tropical Storm Tracking
New forecast layout! Learn more

10-Day Weather Forecast

Advertisements
Track Severe Weather on mobile